Time;durP1;ratioP1;P1;durP2;ratioP2;P2;SDS_P1;SDS_P2;PMS_P1;PMS_P2;Temp;Humidity;BMP_temperature;BMP_pressure;BME280_temperature;BME280_humidity;BME280_pressure;Samples;Min_cycle;Max_cycle;Signal;HPM_P1;HPM_P2
2023/08/17 00:02:01;;;;;;;9.80;8.80;;;25.20;80.40;;;;;;5039833;28;20203;-60
2023/08/17 00:04:28;;;;;;;11.47;9.57;;;25.20;80.60;;;;;;5044546;28;20574;-60
2023/08/17 00:06:55;;;;;;;18.00;10.33;;;25.20;80.70;;;;;;5042385;28;20198;-60
2023/08/17 00:09:22;;;;;;;10.47;9.17;;;25.20;80.80;;;;;;5045146;28;20205;-60
2023/08/17 00:11:49;;;;;;;12.27;9.83;;;25.10;81.00;;;;;;5047831;28;20670;-60
2023/08/17 00:14:17;;;;;;;10.30;8.93;;;25.10;81.30;;;;;;5043493;28;20268;-60
2023/08/17 00:16:43;;;;;;;10.90;9.77;;;25.00;81.40;;;;;;5042029;28;20191;-60
2023/08/17 00:19:10;;;;;;;10.00;9.00;;;25.00;81.60;;;;;;5048808;28;20216;-60
2023/08/17 00:21:37;;;;;;;10.10;9.03;;;24.90;81.70;;;;;;5044553;28;20195;-60
2023/08/17 00:24:05;;;;;;;10.80;9.03;;;24.80;82.00;;;;;;5047018;28;20206;-60
2023/08/17 00:26:32;;;;;;;9.77;8.97;;;24.80;82.10;;;;;;5046937;28;20209;-60
2023/08/17 00:28:59;;;;;;;10.70;9.60;;;24.70;82.10;;;;;;5040966;28;20223;-60
2023/08/17 00:31:26;;;;;;;10.60;9.70;;;24.70;82.20;;;;;;5044617;28;20544;-60
2023/08/17 00:33:53;;;;;;;15.87;10.00;;;24.60;82.60;;;;;;5045321;28;20242;-60
2023/08/17 00:36:20;;;;;;;11.23;9.97;;;24.60;83.00;;;;;;5045475;28;20195;-60
2023/08/17 00:38:47;;;;;;;13.17;9.90;;;24.60;83.10;;;;;;5045177;28;20203;-60
2023/08/17 00:41:14;;;;;;;11.97;10.30;;;24.50;83.10;;;;;;5044208;28;20622;-60
2023/08/17 00:43:41;;;;;;;11.90;10.80;;;24.60;83.20;;;;;;5048493;28;20305;-60
2023/08/17 00:46:08;;;;;;;12.73;10.83;;;24.50;83.40;;;;;;5044581;28;20657;-60
2023/08/17 00:48:35;;;;;;;11.70;10.47;;;24.50;83.70;;;;;;5044108;28;20244;-60
2023/08/17 00:51:02;;;;;;;11.93;10.47;;;24.50;83.80;;;;;;5042687;28;20199;-60
2023/08/17 00:53:31;;;;;;;11.57;10.43;;;24.50;83.70;;;;;;5043386;28;20226;-61
2023/08/17 00:56:01;;;;;;;11.87;10.77;;;24.50;83.70;;;;;;5041347;28;20229;-60
2023/08/17 00:58:28;;;;;;;12.23;11.00;;;24.60;83.50;;;;;;5038237;28;20239;-60
2023/08/17 01:00:55;;;;;;;12.10;11.00;;;24.60;83.40;;;;;;5040823;28;20230;-60
2023/08/17 01:03:23;;;;;;;15.50;10.37;;;24.60;83.30;;;;;;5048161;28;20209;-60
2023/08/17 01:05:51;;;;;;;11.50;10.33;;;24.60;83.20;;;;;;5041104;28;20250;-61
2023/08/17 01:08:18;;;;;;;15.10;10.73;;;24.60;83.20;;;;;;5040981;28;20645;-60
2023/08/17 01:11:16;;;;;;;12.20;11.00;;;24.60;83.10;;;;;;5043369;28;20615;-61
2023/08/17 01:14:11;;;;;;;11.57;10.57;;;24.60;83.20;;;;;;5041815;28;20233;-60
2023/08/17 01:16:43;;;;;;;10.73;9.63;;;24.60;83.30;;;;;;5040190;28;20191;-60
2023/08/17 01:19:18;;;;;;;13.77;10.23;;;24.60;83.30;;;;;;5042039;28;20208;-60
2023/08/17 01:21:51;;;;;;;9.90;8.90;;;24.60;83.30;;;;;;5041771;28;20651;-60
2023/08/17 01:24:18;;;;;;;12.03;10.83;;;24.60;83.50;;;;;;5040677;28;20218;-60
2023/08/17 01:26:45;;;;;;;13.27;11.63;;;24.60;83.50;;;;;;5043808;28;20246;-60
2023/08/17 01:29:13;;;;;;;12.20;10.90;;;24.60;83.50;;;;;;5042191;28;20550;-60
2023/08/17 01:31:53;;;;;;;11.77;10.13;;;24.50;83.50;;;;;;5042575;28;20244;-61
2023/08/17 01:34:23;;;;;;;12.33;11.03;;;24.50;83.50;;;;;;5046116;28;20212;-60
2023/08/17 01:36:57;;;;;;;10.27;9.13;;;24.50;83.40;;;;;;5039243;28;20204;-60
2023/08/17 01:39:32;;;;;;;12.23;9.83;;;24.50;83.50;;;;;;5049610;28;20686;-60
2023/08/17 01:42:00;;;;;;;11.17;9.97;;;24.50;83.60;;;;;;5043192;28;20197;-60
2023/08/17 01:44:27;;;;;;;11.17;10.07;;;24.40;83.60;;;;;;5042688;28;20646;-60
2023/08/17 01:46:54;;;;;;;12.30;9.63;;;24.40;83.80;;;;;;5042366;28;20201;-60
2023/08/17 01:49:22;;;;;;;11.47;10.43;;;24.30;83.80;;;;;;5041804;28;20569;-60
2023/08/17 01:51:49;;;;;;;17.93;12.47;;;24.30;83.90;;;;;;5042052;28;20275;-61
2023/08/17 01:54:16;;;;;;;13.77;12.47;;;24.20;84.00;;;;;;5041702;28;20548;-60
2023/08/17 01:56:43;;;;;;;13.40;12.07;;;24.20;84.20;;;;;;5046928;28;20276;-60
2023/08/17 01:59:12;;;;;;;12.23;11.17;;;24.20;84.40;;;;;;5045811;28;20607;-60
2023/08/17 02:01:39;;;;;;;14.13;11.53;;;24.20;84.50;;;;;;5059895;28;20234;-60
2023/08/17 02:04:06;;;;;;;12.67;10.63;;;24.10;84.50;;;;;;5047402;28;20262;-61
2023/08/17 02:06:33;;;;;;;11.83;10.57;;;24.10;84.50;;;;;;5049430;28;20210;-60
2023/08/17 02:09:00;;;;;;;11.77;10.73;;;24.10;84.60;;;;;;5043468;28;20214;-61
2023/08/17 02:11:27;;;;;;;11.70;10.60;;;24.00;84.70;;;;;;5041932;28;20203;-60
2023/08/17 02:13:54;;;;;;;12.40;11.30;;;24.00;84.90;;;;;;5043616;28;20707;-60
2023/08/17 02:16:23;;;;;;;10.80;9.73;;;24.00;85.10;;;;;;5041903;28;20759;-60
2023/08/17 02:18:50;;;;;;;11.30;10.20;;;23.90;85.00;;;;;;5044896;28;20290;-61
2023/08/17 02:21:17;;;;;;;11.83;10.70;;;23.90;84.60;;;;;;5046464;28;20200;-60
2023/08/17 02:23:44;;;;;;;14.03;12.63;;;23.80;84.60;;;;;;5047966;28;20559;-60
2023/08/17 02:26:11;;;;;;;14.30;12.90;;;23.80;85.00;;;;;;5038188;28;20203;-60
2023/08/17 02:28:39;;;;;;;15.80;14.40;;;23.70;85.60;;;;;;5040786;28;20325;-60
2023/08/17 02:31:06;;;;;;;16.63;13.90;;;23.70;86.20;;;;;;5043771;28;20218;-60
2023/08/17 02:33:33;;;;;;;14.07;12.83;;;23.70;86.60;;;;;;5043879;28;20211;-60
2023/08/17 02:36:01;;;;;;;14.70;11.23;;;23.60;86.90;;;;;;5043498;28;20195;-60
2023/08/17 02:38:28;;;;;;;14.70;11.73;;;23.60;87.20;;;;;;5044532;28;20191;-60
2023/08/17 02:40:55;;;;;;;12.60;11.40;;;23.60;87.00;;;;;;5047163;28;20556;-60
2023/08/17 02:43:22;;;;;;;12.23;11.03;;;23.50;87.00;;;;;;5043339;28;20191;-60
2023/08/17 02:45:50;;;;;;;14.00;12.67;;;23.50;87.10;;;;;;5038181;28;20209;-60
2023/08/17 02:48:18;;;;;;;13.90;12.50;;;23.60;87.30;;;;;;5036602;28;20580;-60
2023/08/17 02:50:45;;;;;;;14.17;12.77;;;23.50;87.40;;;;;;5043639;28;20658;-60
2023/08/17 02:53:12;;;;;;;15.47;12.53;;;23.50;87.50;;;;;;5034602;28;20209;-60
2023/08/17 02:55:39;;;;;;;12.97;11.67;;;23.60;87.70;;;;;;5040851;28;20674;-61
2023/08/17 02:58:07;;;;;;;12.00;10.93;;;23.50;87.80;;;;;;5038732;28;20600;-60
2023/08/17 03:00:34;;;;;;;14.80;11.23;;;23.50;88.00;;;;;;5041514;28;20203;-60
2023/08/17 03:03:01;;;;;;;13.27;11.97;;;23.50;88.00;;;;;;5041501;28;20211;-60
2023/08/17 03:05:29;;;;;;;12.17;11.03;;;23.40;88.10;;;;;;5041434;28;20238;-60
2023/08/17 03:07:56;;;;;;;14.83;12.00;;;23.50;88.30;;;;;;5042276;28;20209;-60
2023/08/17 03:10:24;;;;;;;14.23;11.90;;;23.40;88.40;;;;;;5040585;28;20202;-60
2023/08/17 03:12:52;;;;;;;13.73;12.40;;;23.50;88.60;;;;;;5037057;28;20237;-60
2023/08/17 03:15:19;;;;;;;14.27;12.97;;;23.50;88.70;;;;;;5041620;28;20517;-60
2023/08/17 03:17:46;;;;;;;14.50;12.73;;;23.50;88.70;;;;;;5038528;28;20619;-60
2023/08/17 03:20:13;;;;;;;16.17;12.33;;;23.40;88.60;;;;;;5039320;28;20536;-60
2023/08/17 03:22:40;;;;;;;15.73;11.60;;;23.50;88.50;;;;;;5042709;28;20207;-60
2023/08/17 03:25:08;;;;;;;13.83;12.37;;;23.40;88.40;;;;;;5043053;28;20195;-60
2023/08/17 03:27:36;;;;;;;13.00;11.57;;;23.40;88.40;;;;;;5041586;28;20260;-61
2023/08/17 03:30:05;;;;;;;17.07;13.40;;;23.40;88.30;;;;;;5038205;28;20203;-60
2023/08/17 03:32:32;;;;;;;17.40;13.10;;;23.40;88.40;;;;;;5040580;28;20706;-60
2023/08/17 03:34:59;;;;;;;15.57;13.70;;;23.40;88.50;;;;;;5045220;28;20246;-60
2023/08/17 03:37:26;;;;;;;14.40;13.10;;;23.40;88.70;;;;;;5041025;28;20283;-60
2023/08/17 03:39:54;;;;;;;13.70;12.37;;;23.40;88.60;;;;;;5049910;28;20223;-60
2023/08/17 03:42:21;;;;;;;15.70;12.37;;;23.40;88.60;;;;;;5043073;28;20290;-60
2023/08/17 03:44:48;;;;;;;14.77;13.37;;;23.40;88.70;;;;;;5037405;28;20597;-60
2023/08/17 03:47:15;;;;;;;15.10;13.57;;;23.40;88.80;;;;;;5040535;28;20203;-60
2023/08/17 03:49:42;;;;;;;14.53;13.17;;;23.40;88.90;;;;;;5042471;28;20225;-60
2023/08/17 03:52:09;;;;;;;15.50;13.90;;;23.40;89.00;;;;;;5040423;28;20199;-60
2023/08/17 03:54:36;;;;;;;17.27;12.93;;;23.40;88.90;;;;;;5041832;28;20226;-60
2023/08/17 03:57:03;;;;;;;15.43;13.83;;;23.50;88.90;;;;;;5039406;28;20206;-60
2023/08/17 03:59:30;;;;;;;17.03;13.83;;;23.40;88.80;;;;;;5040910;28;20225;-60
2023/08/17 04:01:58;;;;;;;14.43;12.93;;;23.40;88.80;;;;;;5049071;28;20214;-61
2023/08/17 04:04:25;;;;;;;14.20;12.63;;;23.40;88.80;;;;;;5038617;28;20262;-60
2023/08/17 04:06:52;;;;;;;15.07;13.60;;;23.40;88.90;;;;;;5050816;28;20222;-60
2023/08/17 04:09:19;;;;;;;14.13;12.90;;;23.30;88.90;;;;;;5038187;28;20214;-60
2023/08/17 04:11:46;;;;;;;16.97;13.73;;;23.30;88.90;;;;;;5036898;28;20227;-60
2023/08/17 04:14:14;;;;;;;15.63;13.63;;;23.30;88.90;;;;;;5037800;28;20211;-61
2023/08/17 04:16:41;;;;;;;16.57;13.57;;;23.30;88.80;;;;;;5049155;28;20732;-60
2023/08/17 04:19:08;;;;;;;16.00;13.33;;;23.30;88.80;;;;;;5036932;28;20651;-60
2023/08/17 04:21:35;;;;;;;13.07;11.77;;;23.20;88.90;;;;;;5046074;28;20533;-60
2023/08/17 04:24:03;;;;;;;13.40;12.20;;;23.20;89.00;;;;;;5032931;28;20199;-61
2023/08/17 04:26:30;;;;;;;17.33;12.73;;;23.20;89.10;;;;;;5036535;28;20196;-61
2023/08/17 04:28:57;;;;;;;14.40;13.00;;;23.20;89.20;;;;;;5037233;28;20206;-60
2023/08/17 04:31:24;;;;;;;14.47;13.07;;;23.20;89.10;;;;;;5039576;28;20200;-60
2023/08/17 04:33:58;;;;;;;15.57;12.73;;;23.20;89.10;;;;;;5040210;28;20199;-61
2023/08/17 04:36:26;;;;;;;14.70;13.50;;;23.20;89.10;;;;;;5044023;28;20198;-60
2023/08/17 04:38:53;;;;;;;14.63;13.23;;;23.20;89.10;;;;;;5041324;28;20656;-61
2023/08/17 04:41:21;;;;;;;14.77;12.83;;;23.20;89.00;;;;;;5043810;28;20253;-60
2023/08/17 04:43:49;;;;;;;13.70;12.40;;;23.20;89.00;;;;;;5049570;28;20225;-61
2023/08/17 04:46:17;;;;;;;15.20;13.07;;;23.20;89.10;;;;;;5047627;28;20204;-60
2023/08/17 04:48:44;;;;;;;15.80;14.40;;;23.20;89.10;;;;;;5040322;28;20207;-61
2023/08/17 04:51:12;;;;;;;16.73;13.90;;;23.30;89.10;;;;;;5049058;28;20199;-61
2023/08/17 04:53:42;;;;;;;16.83;15.27;;;23.30;89.20;;;;;;5043072;28;20203;-60
2023/08/17 04:56:09;;;;;;;17.43;15.43;;;23.30;89.30;;;;;;5042721;28;20223;-61
2023/08/17 04:58:38;;;;;;;17.37;13.67;;;23.30;89.30;;;;;;5043227;28;20301;-60
2023/08/17 05:01:05;;;;;;;15.70;14.23;;;23.30;89.20;;;;;;5045593;28;20233;-61
2023/08/17 05:03:33;;;;;;;15.60;14.20;;;23.30;89.20;;;;;;5039791;28;20691;-60
2023/08/17 05:06:03;;;;;;;15.20;13.07;;;23.40;89.40;;;;;;5049136;28;20238;-61
2023/08/17 05:08:31;;;;;;;17.07;15.30;;;23.40;89.50;;;;;;5050819;28;20222;-60
2023/08/17 05:10:58;;;;;;;17.37;15.63;;;23.50;89.60;;;;;;5040492;28;20314;-61
2023/08/17 05:13:26;;;;;;;15.93;14.43;;;23.50;89.40;;;;;;5042261;28;20218;-60
2023/08/17 05:15:56;;;;;;;16.80;15.13;;;23.50;89.40;;;;;;5046361;28;20226;-61
2023/08/17 05:18:23;;;;;;;19.27;17.00;;;23.60;89.40;;;;;;5041807;28;20639;-60
2023/08/17 05:20:50;;;;;;;18.40;16.53;;;23.60;89.30;;;;;;5044643;28;20214;-60
2023/08/17 05:23:17;;;;;;;19.13;17.33;;;23.70;89.30;;;;;;5044241;28;20206;-61
2023/08/17 05:25:48;;;;;;;20.63;16.93;;;23.70;89.10;;;;;;5044447;28;20305;-61
2023/08/17 05:28:15;;;;;;;18.40;16.80;;;23.80;89.00;;;;;;5040431;28;20284;-60
2023/08/17 05:30:43;;;;;;;19.07;17.07;;;23.80;88.70;;;;;;5041727;28;20207;-61
2023/08/17 05:33:09;;;;;;;18.37;16.50;;;23.90;88.60;;;;;;5043018;28;20297;-60
2023/08/17 05:35:38;;;;;;;20.70;17.40;;;24.00;88.50;;;;;;5042491;28;20230;-60
2023/08/17 05:38:05;;;;;;;18.30;16.57;;;24.00;88.30;;;;;;5037429;28;20367;-60
2023/08/17 05:40:33;;;;;;;20.30;17.70;;;24.10;88.10;;;;;;5039904;28;20215;-60
2023/08/17 05:43:00;;;;;;;18.07;16.13;;;24.20;88.70;;;;;;5042274;28;20270;-60
2023/08/17 05:45:27;;;;;;;22.37;18.03;;;24.30;88.00;;;;;;5037695;28;20286;-61
2023/08/17 05:47:54;;;;;;;19.23;17.40;;;24.30;88.00;;;;;;5035918;28;20280;-61
2023/08/17 05:50:21;;;;;;;19.67;17.80;;;24.50;87.60;;;;;;5036778;28;20630;-60
2023/08/17 05:52:48;;;;;;;22.50;18.17;;;24.60;87.30;;;;;;5037485;28;20603;-60
2023/08/17 05:55:15;;;;;;;21.80;18.10;;;24.60;87.10;;;;;;5038708;28;20217;-60
2023/08/17 05:57:42;;;;;;;19.07;17.17;;;24.70;87.10;;;;;;5043451;28;20720;-61
2023/08/17 06:00:12;;;;;;;20.17;18.17;;;24.90;87.20;;;;;;5037705;28;20203;-61
2023/08/17 06:02:41;;;;;;;23.23;19.20;;;25.00;87.00;;;;;;5037828;28;20278;-61
2023/08/17 06:05:08;;;;;;;26.10;18.87;;;25.10;86.20;;;;;;5040162;28;20241;-60
2023/08/17 06:07:36;;;;;;;20.90;18.80;;;25.20;85.80;;;;;;5039635;28;20211;-60
2023/08/17 06:10:06;;;;;;;29.50;19.20;;;25.20;85.40;;;;;;5039385;28;20612;-60
2023/08/17 06:12:33;;;;;;;20.20;18.10;;;25.40;85.30;;;;;;5041176;28;20215;-61
2023/08/17 06:15:02;;;;;;;24.17;18.33;;;25.40;85.00;;;;;;5043349;28;20218;-61
2023/08/17 06:17:29;;;;;;;27.03;19.47;;;25.50;84.80;;;;;;5040846;28;20286;-61
2023/08/17 06:19:56;;;;;;;20.80;18.67;;;25.60;84.60;;;;;;5044823;28;20281;-60
2023/08/17 06:22:23;;;;;;;20.70;18.67;;;25.60;84.10;;;;;;5039901;28;20202;-60
2023/08/17 06:24:50;;;;;;;20.37;18.30;;;25.80;84.00;;;;;;5043016;28;20207;-60
2023/08/17 06:27:17;;;;;;;24.80;19.57;;;25.90;83.80;;;;;;5041670;28;20624;-61
2023/08/17 06:29:44;;;;;;;20.20;18.23;;;26.00;83.60;;;;;;5045210;28;20237;-61
2023/08/17 06:32:11;;;;;;;20.87;18.97;;;26.10;83.30;;;;;;5041373;28;20218;-61
2023/08/17 06:34:38;;;;;;;18.17;16.03;;;26.30;82.70;;;;;;5044091;28;20206;-61
2023/08/17 06:37:05;;;;;;;18.73;16.93;;;26.40;82.50;;;;;;5043853;28;20197;-60
2023/08/17 06:39:32;;;;;;;19.40;17.47;;;26.60;82.30;;;;;;5041793;28;20542;-61
2023/08/17 06:42:00;;;;;;;18.10;16.43;;;26.70;82.10;;;;;;5043544;28;20213;-61
2023/08/17 06:44:28;;;;;;;20.07;16.43;;;26.80;81.60;;;;;;5043723;28;20221;-61
2023/08/17 06:46:56;;;;;;;19.57;17.47;;;26.90;81.30;;;;;;5041785;28;20207;-60
2023/08/17 06:49:24;;;;;;;19.53;17.53;;;27.00;80.40;;;;;;5040943;28;20233;-60
2023/08/17 06:51:51;;;;;;;20.07;17.77;;;27.20;80.00;;;;;;5041031;28;20216;-61
2023/08/17 06:54:18;;;;;;;20.33;18.47;;;27.30;79.00;;;;;;5043231;28;20562;-61
2023/08/17 06:56:45;;;;;;;23.13;18.67;;;27.40;78.60;;;;;;5040931;28;20218;-60
2023/08/17 06:59:12;;;;;;;19.67;17.90;;;27.50;77.40;;;;;;5042181;28;20277;-60
2023/08/17 07:01:39;;;;;;;18.80;17.00;;;27.50;77.30;;;;;;5042826;28;20265;-61
2023/08/17 07:04:06;;;;;;;18.63;17.10;;;27.60;77.40;;;;;;5037707;28;20242;-60
2023/08/17 07:06:34;;;;;;;22.03;19.90;;;27.70;77.60;;;;;;5038215;28;20206;-60
2023/08/17 07:09:03;;;;;;;21.70;19.63;;;27.80;77.10;;;;;;5044850;28;20198;-60
2023/08/17 07:11:31;;;;;;;22.30;20.30;;;27.90;76.90;;;;;;5037140;28;20252;-60
2023/08/17 07:13:58;;;;;;;21.07;18.83;;;28.00;76.40;;;;;;5037402;28;20297;-60
2023/08/17 07:16:25;;;;;;;21.37;19.20;;;28.00;76.50;;;;;;5041943;28;20244;-60
2023/08/17 07:18:52;;;;;;;20.80;18.93;;;28.10;76.60;;;;;;5039638;28;20202;-61
2023/08/17 07:21:19;;;;;;;21.27;19.30;;;28.30;75.90;;;;;;5040592;28;20549;-60
2023/08/17 07:23:47;;;;;;;23.63;20.63;;;28.40;75.60;;;;;;5041311;28;20198;-61
2023/08/17 07:26:14;;;;;;;22.37;19.60;;;28.60;75.10;;;;;;5041594;28;20202;-60
2023/08/17 07:28:41;;;;;;;21.87;19.47;;;28.70;74.70;;;;;;5038469;28;20363;-60
2023/08/17 07:31:08;;;;;;;19.03;17.23;;;28.80;74.50;;;;;;5045546;28;20202;-60
2023/08/17 07:33:35;;;;;;;22.87;20.43;;;28.90;74.90;;;;;;5043378;28;20203;-61
2023/08/17 07:36:02;;;;;;;21.60;19.63;;;29.00;74.40;;;;;;5040687;28;20214;-60
2023/08/17 07:38:29;;;;;;;22.73;20.63;;;29.20;74.10;;;;;;5039543;28;20254;-61
2023/08/17 07:40:56;;;;;;;20.93;19.03;;;29.30;73.50;;;;;;5044238;28;20627;-60
2023/08/17 07:43:23;;;;;;;23.67;19.63;;;29.40;72.90;;;;;;5037408;28;20203;-61
2023/08/17 07:45:57;;;;;;;21.37;19.37;;;29.50;72.70;;;;;;5040898;28;20293;-61
2023/08/17 07:48:25;;;;;;;22.77;20.43;;;29.60;72.20;;;;;;5042009;28;20207;-61
2023/08/17 07:50:53;;;;;;;20.93;18.80;;;29.70;71.80;;;;;;5039600;28;20234;-60
2023/08/17 07:53:20;;;;;;;21.47;18.53;;;29.80;71.30;;;;;;5037524;28;20203;-61
2023/08/17 07:55:47;;;;;;;23.27;21.07;;;29.90;70.60;;;;;;5042788;28;20329;-60
2023/08/17 07:58:16;;;;;;;20.77;18.00;;;29.90;70.10;;;;;;5039074;28;20222;-61
2023/08/17 08:00:43;;;;;;;19.67;17.77;;;30.00;69.90;;;;;;5041816;28;20195;-60
2023/08/17 08:03:10;;;;;;;20.07;18.30;;;30.20;70.00;;;;;;5040876;28;20895;-61
2023/08/17 08:05:37;;;;;;;18.90;17.00;;;30.30;69.90;;;;;;5049019;28;20702;-61
2023/08/17 08:08:04;;;;;;;17.07;15.53;;;30.50;68.70;;;;;;5045945;28;20195;-60
2023/08/17 08:10:31;;;;;;;14.43;12.97;;;30.60;68.20;;;;;;5043957;28;20595;-60
2023/08/17 08:12:58;;;;;;;22.17;18.53;;;30.70;68.30;;;;;;5044157;28;20206;-61
2023/08/17 08:15:25;;;;;;;27.83;18.87;;;30.80;67.50;;;;;;5045133;28;20227;-60
2023/08/17 08:17:53;;;;;;;18.57;16.77;;;31.00;67.70;;;;;;5042009;28;20201;-61
2023/08/17 08:20:21;;;;;;;19.50;15.90;;;31.10;67.10;;;;;;5045918;28;20676;-60
2023/08/17 08:22:48;;;;;;;20.20;15.83;;;31.10;66.80;;;;;;5047340;28;20191;-61
2023/08/17 08:25:15;;;;;;;15.03;13.63;;;31.30;66.20;;;;;;5042801;28;20207;-61
2023/08/17 08:27:42;;;;;;;18.37;13.93;;;31.30;66.10;;;;;;5042613;28;20287;-61
2023/08/17 08:30:10;;;;;;;16.43;13.77;;;31.40;65.90;;;;;;5053757;28;20214;-61
2023/08/17 08:32:37;;;;;;;14.40;12.97;;;31.50;65.20;;;;;;5042270;28;20195;-61
2023/08/17 08:35:04;;;;;;;13.07;11.87;;;31.60;65.00;;;;;;5045094;28;20199;-61
2023/08/17 08:37:32;;;;;;;15.00;13.63;;;31.70;64.70;;;;;;5044902;28;20603;-61
2023/08/17 08:39:59;;;;;;;17.23;15.40;;;31.70;63.70;;;;;;5040682;28;20207;-61
2023/08/17 08:42:26;;;;;;;14.27;12.60;;;31.80;63.50;;;;;;5042574;28;20233;-61
2023/08/17 08:44:54;;;;;;;13.20;11.87;;;31.90;63.10;;;;;;5047043;28;20599;-61
2023/08/17 08:47:23;;;;;;;14.20;11.93;;;31.80;62.90;;;;;;5037648;28;20536;-60
2023/08/17 08:50:02;;;;;;;16.03;13.33;;;31.80;62.70;;;;;;5039221;28;20217;-62
2023/08/17 08:52:42;;;;;;;15.60;13.87;;;31.90;62.90;;;;;;5047128;28;20195;-61
2023/08/17 08:55:15;;;;;;;13.63;12.33;;;32.10;63.00;;;;;;5040554;28;20640;-61
2023/08/17 08:57:43;;;;;;;17.07;12.70;;;32.20;62.80;;;;;;5039381;28;20228;-61
2023/08/17 09:00:12;;;;;;;10.83;8.57;;;32.40;62.30;;;;;;5039622;28;20523;-61
2023/08/17 09:02:40;;;;;;;9.43;8.47;;;32.50;61.20;;;;;;5040927;28;20199;-61
2023/08/17 09:05:10;;;;;;;9.00;7.83;;;32.60;60.30;;;;;;5040152;28;20249;-61
2023/08/17 09:07:39;;;;;;;10.77;9.73;;;32.80;58.90;;;;;;5043997;28;20237;-61
2023/08/17 09:10:06;;;;;;;14.70;11.93;;;32.90;58.40;;;;;;5045992;28;20210;-61
2023/08/17 09:12:33;;;;;;;12.00;10.90;;;33.00;58.80;;;;;;5039525;28;20233;-61
2023/08/17 09:15:07;;;;;;;11.70;10.53;;;33.00;59.10;;;;;;5039630;28;20196;-61
2023/08/17 09:17:34;;;;;;;11.10;10.13;;;33.10;58.70;;;;;;5037178;28;20667;-61
2023/08/17 09:20:03;;;;;;;11.50;10.40;;;33.10;59.00;;;;;;5043286;28;20208;-61
2023/08/17 09:22:43;;;;;;;11.60;10.47;;;33.20;58.80;;;;;;5041637;28;20204;-61
2023/08/17 09:25:11;;;;;;;12.43;10.20;;;33.30;58.10;;;;;;5045171;28;20540;-61
2023/08/17 09:27:38;;;;;;;14.77;10.93;;;33.30;58.20;;;;;;5042536;28;20217;-61
2023/08/17 09:30:08;;;;;;;12.83;9.97;;;33.50;57.70;;;;;;5042677;28;20205;-61
2023/08/17 09:32:35;;;;;;;9.23;8.33;;;33.50;57.00;;;;;;5044243;28;20285;-61
2023/08/17 09:35:05;;;;;;;9.97;9.07;;;33.60;56.50;;;;;;5045940;28;20530;-61
2023/08/17 09:37:33;;;;;;;9.33;8.20;;;33.60;56.00;;;;;;5043038;28;20261;-61
2023/08/17 09:40:00;;;;;;;11.77;8.80;;;33.60;55.70;;;;;;5045396;28;20538;-61
2023/08/17 09:42:27;;;;;;;10.83;8.77;;;33.70;56.30;;;;;;5044959;28;20198;-61
2023/08/17 09:44:55;;;;;;;10.30;7.77;;;33.80;56.10;;;;;;5043185;28;20217;-61
2023/08/17 09:47:23;;;;;;;9.37;8.47;;;33.90;56.40;;;;;;5041804;28;20194;-61
2023/08/17 09:49:52;;;;;;;11.50;8.10;;;34.00;55.60;;;;;;5042307;28;20852;-61
2023/08/17 09:52:21;;;;;;;9.00;7.00;;;34.20;54.90;;;;;;5038069;28;20217;-61
2023/08/17 09:54:48;;;;;;;9.80;7.00;;;34.20;54.00;;;;;;5039650;28;20679;-61
2023/08/17 09:57:17;;;;;;;8.40;6.60;;;34.20;53.50;;;;;;5035900;28;20268;-61
2023/08/17 09:59:51;;;;;;;7.27;6.57;;;34.20;52.50;;;;;;5043820;28;20198;-61
2023/08/17 10:02:26;;;;;;;7.93;7.07;;;34.20;51.80;;;;;;5040727;28;20277;-61
2023/08/17 10:04:55;;;;;;;7.03;6.53;;;34.30;52.00;;;;;;5041452;28;20235;-61
2023/08/17 10:07:30;;;;;;;10.90;7.23;;;34.50;52.40;;;;;;5046268;28;20265;-61
2023/08/17 10:10:06;;;;;;;10.17;8.80;;;34.50;52.30;;;;;;5039613;28;20206;-61
2023/08/17 10:12:41;;;;;;;12.50;7.47;;;34.70;52.70;;;;;;5040601;28;20733;-61
2023/08/17 10:15:11;;;;;;;13.37;8.30;;;34.80;53.30;;;;;;5043042;28;20223;-61
2023/08/17 10:17:48;;;;;;;8.47;7.43;;;34.80;52.60;;;;;;5037578;28;20250;-61
2023/08/17 10:20:16;;;;;;;8.45;6.90;;;34.80;53.10;;;;;;5036049;28;20219;-61
2023/08/17 10:22:52;;;;;;;9.23;6.57;;;34.90;53.00;;;;;;5036015;28;20291;-61
2023/08/17 10:25:21;;;;;;;6.67;6.17;;;34.90;51.00;;;;;;5036611;28;20651;-61
2023/08/17 10:27:51;;;;;;;7.00;6.28;;;34.90;50.30;;;;;;5041631;28;20577;-61
2023/08/17 10:30:18;;;;;;;8.80;5.97;;;35.00;50.60;;;;;;5041187;28;20211;-61
2023/08/17 10:32:46;;;;;;;6.50;5.90;;;35.10;50.80;;;;;;5040373;28;20264;-61
2023/08/17 10:35:14;;;;;;;7.13;6.53;;;35.20;51.10;;;;;;5041713;28;20297;-61
2023/08/17 10:37:41;;;;;;;7.15;6.45;;;35.30;51.00;;;;;;5039251;28;20221;-60
2023/08/17 10:40:10;;;;;;;7.18;5.85;;;35.40;50.30;;;;;;5040360;28;20202;-61
2023/08/17 10:42:55;;;;;;;9.85;6.60;;;35.40;49.90;;;;;;5041762;28;20635;-61
2023/08/17 10:45:28;;;;;;;8.80;6.30;;;35.30;49.90;;;;;;5039402;28;20206;-61
2023/08/17 10:48:28;;;;;;;8.13;5.93;;;35.40;50.30;;;;;;5036442;28;20564;-61
2023/08/17 10:51:00;;;;;;;6.95;5.97;;;35.30;49.80;;;;;;5038215;28;20194;-61
2023/08/17 10:53:34;;;;;;;9.25;6.20;;;35.30;49.70;;;;;;5039714;28;20196;-61
2023/08/17 10:56:06;;;;;;;7.50;6.07;;;35.30;49.60;;;;;;5039798;28;20257;-61
2023/08/17 10:58:33;;;;;;;6.78;5.93;;;35.30;49.60;;;;;;5041298;28;20191;-61
2023/08/17 11:01:00;;;;;;;10.23;6.00;;;35.40;48.60;;;;;;5037934;28;20209;-61
2023/08/17 11:03:28;;;;;;;8.20;6.55;;;35.40;49.10;;;;;;5040694;28;20203;-61
2023/08/17 11:05:57;;;;;;;7.00;6.30;;;35.40;49.90;;;;;;5041540;28;20250;-61
2023/08/17 11:08:38;;;;;;;6.73;5.50;;;35.50;48.60;;;;;;5041798;28;20547;-61
2023/08/17 11:11:13;;;;;;;6.55;5.68;;;35.60;49.30;;;;;;5039725;28;20221;-61
2023/08/17 11:13:43;;;;;;;6.40;5.63;;;35.60;48.70;;;;;;5041946;28;20203;-61
2023/08/17 11:16:11;;;;;;;7.05;6.25;;;35.60;48.40;;;;;;5040715;28;20314;-61
2023/08/17 11:18:44;;;;;;;9.88;5.93;;;35.70;48.00;;;;;;5042932;28;20213;-61
2023/08/17 11:21:12;;;;;;;6.65;5.60;;;35.70;47.90;;;;;;5039168;28;20203;-61
2023/08/17 11:23:45;;;;;;;6.30;5.45;;;35.70;47.70;;;;;;5040423;28;20635;-61
2023/08/17 11:26:17;;;;;;;6.80;6.20;;;35.80;47.40;;;;;;5041638;28;20612;-59
2023/08/17 11:28:44;;;;;;;6.70;5.53;;;35.80;47.10;;;;;;5040813;28;20666;-61
2023/08/17 11:31:15;;;;;;;5.85;5.35;;;35.90;47.60;;;;;;5038747;28;20207;-62
2023/08/17 11:33:42;;;;;;;6.07;5.57;;;35.90;46.80;;;;;;5042899;28;20195;-61
2023/08/17 11:36:10;;;;;;;6.32;5.68;;;35.90;47.10;;;;;;5039468;28;20226;-61
2023/08/17 11:38:42;;;;;;;7.85;5.65;;;36.00;47.00;;;;;;5038479;28;20254;-62
2023/08/17 11:41:10;;;;;;;6.07;5.68;;;36.00;46.50;;;;;;5045614;28;20205;-61
2023/08/17 11:43:46;;;;;;;6.15;5.30;;;36.00;45.90;;;;;;5043128;28;20674;-62
2023/08/17 11:46:13;;;;;;;6.07;5.55;;;36.00;46.30;;;;;;5041545;28;20206;-61
2023/08/17 11:48:40;;;;;;;6.45;5.78;;;36.10;46.90;;;;;;5042149;28;20269;-59
2023/08/17 11:51:08;;;;;;;9.02;5.53;;;36.20;46.70;;;;;;5042176;28;20241;-61
2023/08/17 11:53:36;;;;;;;6.07;5.47;;;36.20;46.00;;;;;;5043296;28;20289;-61
2023/08/17 11:56:04;;;;;;;6.15;5.63;;;36.30;46.40;;;;;;5041491;28;20207;-61
2023/08/17 11:58:40;;;;;;;6.60;6.10;;;36.30;46.20;;;;;;5041441;28;20200;-60
2023/08/17 12:01:10;;;;;;;7.05;5.88;;;36.40;46.50;;;;;;5041980;28;20209;-60
2023/08/17 12:03:39;;;;;;;5.88;5.38;;;36.40;47.00;;;;;;5045847;28;20624;-62
2023/08/17 12:06:06;;;;;;;7.00;6.30;;;36.50;47.10;;;;;;5044105;28;20281;-62
2023/08/17 12:08:34;;;;;;;6.63;6.00;;;36.50;46.70;;;;;;5044844;28;20201;-61
2023/08/17 12:11:03;;;;;;;8.45;6.55;;;36.40;46.70;;;;;;5042464;28;20192;-60
2023/08/17 12:13:32;;;;;;;6.47;5.80;;;36.30;46.90;;;;;;5047654;28;20191;-62
2023/08/17 12:15:59;;;;;;;6.47;5.90;;;36.30;47.00;;;;;;5041584;28;20652;-61
2023/08/17 12:18:27;;;;;;;7.50;6.15;;;36.30;47.00;;;;;;5047239;28;20194;-62
2023/08/17 12:20:55;;;;;;;7.95;7.15;;;36.20;46.80;;;;;;5046480;28;20213;-61
2023/08/17 12:23:22;;;;;;;6.78;6.03;;;36.20;46.90;;;;;;5045209;28;20294;-61
2023/08/17 12:25:55;;;;;;;7.95;6.45;;;36.10;47.30;;;;;;5042687;28;20207;-61
2023/08/17 12:28:24;;;;;;;7.32;6.30;;;36.00;47.40;;;;;;5046298;28;20222;-61
2023/08/17 12:31:02;;;;;;;8.13;6.95;;;36.00;48.20;;;;;;5043784;28;20203;-61
2023/08/17 12:33:29;;;;;;;6.25;5.65;;;35.90;47.60;;;;;;5046188;28;20204;-61
2023/08/17 12:35:57;;;;;;;6.68;6.13;;;35.70;47.60;;;;;;5046018;28;20619;-61
2023/08/17 12:38:24;;;;;;;7.68;6.82;;;35.50;48.30;;;;;;5044773;28;20304;-61
2023/08/17 12:40:53;;;;;;;8.00;6.43;;;35.40;48.80;;;;;;5040276;28;20517;-61